createdAt,value
2022-11-14T00:01:10.935Z,10.52
2022-11-14T00:03:37.589Z,11.52
2022-11-14T00:06:08.011Z,10.48
2022-11-14T00:08:35.454Z,10.02
2022-11-14T00:11:02.145Z,9.80
2022-11-14T00:13:28.919Z,10.63
2022-11-14T00:15:55.680Z,10.32
2022-11-14T00:18:22.840Z,9.68
2022-11-14T00:20:50.951Z,10.38
2022-11-14T00:23:18.792Z,10.48
2022-11-14T00:25:46.187Z,9.82
2022-11-14T00:28:13.386Z,10.35
2022-11-14T00:30:40.290Z,10.30
2022-11-14T00:33:07.162Z,10.27
2022-11-14T00:35:33.820Z,10.43
2022-11-14T00:38:00.593Z,9.68
2022-11-14T00:40:27.349Z,9.68
2022-11-14T00:42:54.840Z,10.00
2022-11-14T00:45:21.936Z,9.65
2022-11-14T00:47:48.854Z,10.38
2022-11-14T00:50:16.821Z,11.18
2022-11-14T00:52:43.642Z,10.00
2022-11-14T00:55:10.359Z,10.90
2022-11-14T00:57:37.239Z,9.70
2022-11-14T01:00:05.479Z,10.00
2022-11-14T01:02:32.179Z,10.13
2022-11-14T01:04:59.003Z,10.85
2022-11-14T01:07:25.659Z,8.55
2022-11-14T01:09:52.324Z,10.23
2022-11-14T01:12:19.086Z,10.80
2022-11-14T01:14:45.784Z,10.50
2022-11-14T01:17:12.572Z,11.02
2022-11-14T01:19:39.398Z,9.07
2022-11-14T01:22:06.762Z,10.75
2022-11-14T01:24:34.385Z,9.95
2022-11-14T01:27:01.497Z,10.07
2022-11-14T01:29:30.197Z,9.32
2022-11-14T01:31:56.993Z,10.40
2022-11-14T01:34:24.014Z,9.38
2022-11-14T01:36:50.898Z,10.90
2022-11-14T01:39:17.860Z,9.52
2022-11-14T01:41:44.683Z,10.02
2022-11-14T01:44:17.415Z,10.10
2022-11-14T01:46:48.174Z,10.25
2022-11-14T01:49:22.689Z,10.10
2022-11-14T01:52:12.238Z,10.85
2022-11-14T01:54:43.338Z,9.30
2022-11-14T01:57:12.400Z,10.52
2022-11-14T01:59:42.446Z,9.27
2022-11-14T02:02:15.305Z,9.57
2022-11-14T02:04:46.973Z,10.88
2022-11-14T02:07:14.759Z,10.88
2022-11-14T02:09:45.914Z,10.30
2022-11-14T02:12:15.317Z,10.20
2022-11-14T02:14:45.346Z,10.73
2022-11-14T02:17:30.212Z,11.25
2022-11-14T02:20:10.059Z,9.98
2022-11-14T02:22:38.092Z,11.20
2022-11-14T02:25:05.751Z,10.52
2022-11-14T02:27:33.904Z,10.10
2022-11-14T02:30:13.878Z,11.90
2022-11-14T02:32:57.375Z,11.15
2022-11-14T02:35:27.607Z,10.70
2022-11-14T02:37:54.275Z,11.65
2022-11-14T02:40:21.101Z,11.15
2022-11-14T02:42:47.784Z,11.82
2022-11-14T02:45:14.633Z,10.27
2022-11-14T02:47:41.370Z,10.18
2022-11-14T02:50:08.456Z,9.98
2022-11-14T02:52:35.042Z,11.27
2022-11-14T02:55:01.800Z,10.55
2022-11-14T02:57:28.521Z,10.10
2022-11-14T02:59:55.258Z,11.10
2022-11-14T03:02:22.097Z,10.88
2022-11-14T03:04:48.843Z,11.75
2022-11-14T03:07:15.691Z,10.40
2022-11-14T03:09:42.400Z,10.00
2022-11-14T03:12:09.841Z,9.85
2022-11-14T03:14:39.475Z,10.75
2022-11-14T03:17:06.109Z,11.02
2022-11-14T03:19:32.774Z,10.93
2022-11-14T03:21:59.470Z,11.20
2022-11-14T03:24:26.288Z,10.25
2022-11-14T03:26:53.031Z,10.93
2022-11-14T03:29:19.732Z,11.18
2022-11-14T03:31:46.434Z,11.10
2022-11-14T03:34:13.289Z,11.75
2022-11-14T03:36:39.944Z,11.00
2022-11-14T03:39:06.964Z,10.98
2022-11-14T03:41:33.714Z,12.15
2022-11-14T03:44:00.602Z,11.93
2022-11-14T03:46:27.564Z,12.70
2022-11-14T03:48:54.912Z,12.98
2022-11-14T03:51:21.825Z,12.60
2022-11-14T03:53:48.435Z,12.63
2022-11-14T03:56:15.148Z,13.65
2022-11-14T03:58:41.893Z,14.75
2022-11-14T04:01:08.819Z,13.05
2022-11-14T04:03:35.564Z,13.52
2022-11-14T04:06:03.134Z,13.82
2022-11-14T04:08:30.343Z,13.80
2022-11-14T04:10:57.244Z,12.98
2022-11-14T04:13:23.965Z,13.75
2022-11-14T04:15:58.539Z,13.80
2022-11-14T04:18:26.479Z,14.77
2022-11-14T04:20:53.705Z,14.55
2022-11-14T04:23:20.403Z,15.05
2022-11-14T04:25:47.140Z,14.65
2022-11-14T04:28:14.257Z,13.90
2022-11-14T04:30:41.212Z,14.32
2022-11-14T04:33:08.110Z,14.80
2022-11-14T04:35:34.773Z,15.07
2022-11-14T04:38:01.675Z,15.63
2022-11-14T04:40:28.285Z,15.77
2022-11-14T04:42:55.118Z,16.55
2022-11-14T04:45:21.855Z,17.10
2022-11-14T04:47:48.623Z,16.75
2022-11-14T04:50:15.326Z,16.05
2022-11-14T04:52:42.031Z,18.33
2022-11-14T04:55:09.048Z,16.77
2022-11-14T04:57:35.941Z,17.92
2022-11-14T05:00:04.211Z,17.55
2022-11-14T05:02:32.293Z,17.88
2022-11-14T05:04:59.104Z,17.65
2022-11-14T05:07:25.928Z,19.58
2022-11-14T05:09:52.710Z,18.38
2022-11-14T05:12:19.399Z,18.42
2022-11-14T05:14:46.127Z,18.48
2022-11-14T05:17:12.827Z,18.88
2022-11-14T05:19:39.465Z,20.10
2022-11-14T05:22:06.114Z,20.90
2022-11-14T05:24:32.813Z,18.45
2022-11-14T05:26:59.564Z,19.05
2022-11-14T05:29:26.228Z,21.25
2022-11-14T05:31:52.838Z,20.33
2022-11-14T05:34:19.489Z,19.70
2022-11-14T05:36:46.122Z,21.02
2022-11-14T05:39:12.832Z,20.98
2022-11-14T05:41:39.490Z,21.55
2022-11-14T05:44:06.538Z,22.52
2022-11-14T05:46:33.162Z,22.83
2022-11-14T05:49:00.320Z,20.92
2022-11-14T05:51:27.066Z,22.42
2022-11-14T05:53:54.817Z,23.38
2022-11-14T05:56:21.675Z,22.75
2022-11-14T05:58:48.416Z,23.92
2022-11-14T06:01:17.903Z,22.55
2022-11-14T06:03:46.864Z,23.98
2022-11-14T06:06:20.300Z,22.75
2022-11-14T06:08:47.617Z,22.13
2022-11-14T06:11:17.133Z,22.98
2022-11-14T06:13:44.167Z,23.52
2022-11-14T06:16:13.636Z,24.50
2022-11-14T06:18:40.690Z,23.63
2022-11-14T06:21:12.100Z,23.65
2022-11-14T06:23:39.051Z,25.10
2022-11-14T06:26:08.300Z,22.52
2022-11-14T06:28:35.068Z,21.63
2022-11-14T06:31:04.189Z,24.13
2022-11-14T06:33:35.396Z,23.63
2022-11-14T06:36:04.773Z,22.98
2022-11-14T06:38:33.125Z,24.02
2022-11-14T06:41:04.029Z,24.30
2022-11-14T06:43:36.474Z,24.35
2022-11-14T06:46:04.517Z,23.25
2022-11-14T06:48:31.849Z,23.33
2022-11-14T06:51:00.116Z,24.70
2022-11-14T06:53:29.500Z,24.00
2022-11-14T06:56:05.469Z,25.15
2022-11-14T06:58:34.308Z,23.70
2022-11-14T07:01:11.279Z,22.98
2022-11-14T07:03:38.062Z,22.52
2022-11-14T07:06:06.462Z,23.25
2022-11-14T07:08:33.856Z,22.70
2022-11-14T07:11:05.723Z,25.77
2022-11-14T07:13:33.535Z,25.17
2022-11-14T07:16:00.484Z,23.40
2022-11-14T07:18:31.416Z,24.33
2022-11-14T07:21:00.194Z,24.73
2022-11-14T07:23:27.321Z,22.95
2022-11-14T07:25:54.104Z,23.25
2022-11-14T07:28:20.820Z,23.27
2022-11-14T07:30:47.657Z,22.83
2022-11-14T07:33:14.407Z,24.50
2022-11-14T07:35:42.011Z,23.88
2022-11-14T07:38:08.710Z,22.90
2022-11-14T07:40:35.438Z,21.98
2022-11-14T07:43:02.788Z,23.20
2022-11-14T07:45:30.144Z,23.20
2022-11-14T07:47:59.020Z,23.42
2022-11-14T07:50:26.902Z,25.60
2022-11-14T07:52:55.848Z,22.58
2022-11-14T07:55:22.512Z,22.55
2022-11-14T07:57:53.215Z,22.52
2022-11-14T08:00:19.974Z,23.30
2022-11-14T08:02:47.549Z,22.42
2022-11-14T08:05:14.224Z,24.48
2022-11-14T08:07:41.083Z,22.65
2022-11-14T08:10:08.897Z,23.95
2022-11-14T08:12:35.682Z,22.45
2022-11-14T08:15:02.394Z,23.38
2022-11-14T08:17:29.090Z,21.48
2022-11-14T08:19:55.743Z,22.90
2022-11-14T08:22:22.542Z,22.30
2022-11-14T08:24:49.188Z,22.95
2022-11-14T08:27:16.092Z,21.33
2022-11-14T08:29:42.829Z,21.67
2022-11-14T08:32:10.719Z,22.92
2022-11-14T08:34:37.436Z,22.17
2022-11-14T08:37:04.186Z,21.30
2022-11-14T08:39:30.915Z,20.85
2022-11-14T08:41:57.667Z,21.77
2022-11-14T08:44:24.302Z,22.85
2022-11-14T08:46:51.269Z,22.48
2022-11-14T08:49:17.928Z,22.38
2022-11-14T08:51:44.803Z,22.55
2022-11-14T08:54:11.559Z,21.15
2022-11-14T08:56:38.335Z,22.23
2022-11-14T08:59:05.570Z,22.13
2022-11-14T09:01:32.807Z,21.58
2022-11-14T09:04:00.901Z,21.30
2022-11-14T09:06:28.044Z,22.27
2022-11-14T09:08:55.150Z,23.40
2022-11-14T09:11:21.967Z,22.42
2022-11-14T09:13:48.607Z,21.58
2022-11-14T09:16:15.273Z,22.63
2022-11-14T09:18:42.042Z,22.45
2022-11-14T09:21:09.232Z,21.25
2022-11-14T09:23:36.245Z,23.83
2022-11-14T09:26:07.823Z,23.40
2022-11-14T09:28:35.419Z,22.55
2022-11-14T09:31:10.182Z,22.92
2022-11-14T09:33:37.137Z,23.08
2022-11-14T09:36:07.027Z,22.02
2022-11-14T09:38:38.465Z,21.65
2022-11-14T09:43:44.518Z,22.92
2022-11-14T09:46:27.477Z,21.45
2022-11-14T09:48:54.342Z,23.15
2022-11-14T09:51:32.700Z,21.98
2022-11-14T09:54:11.857Z,20.10
2022-11-14T09:56:38.679Z,22.83
2022-11-14T09:59:11.069Z,23.55
2022-11-14T10:02:07.311Z,22.90
2022-11-14T10:04:40.084Z,20.75
2022-11-14T10:07:31.893Z,21.52
2022-11-14T10:10:13.694Z,20.58
2022-11-14T10:13:07.208Z,22.38
2022-11-14T10:15:43.103Z,20.90
2022-11-14T10:18:43.892Z,21.42
2022-11-14T10:21:20.326Z,22.85
2022-11-14T10:23:56.120Z,21.27
2022-11-14T10:26:28.289Z,21.95
2022-11-14T10:29:19.989Z,22.35
2022-11-14T10:32:14.840Z,20.83
2022-11-14T10:35:02.424Z,22.38
2022-11-14T10:37:41.940Z,21.60
2022-11-14T10:40:22.496Z,21.48
2022-11-14T10:42:54.492Z,21.90
2022-11-14T10:45:29.402Z,20.52
2022-11-14T10:48:00.216Z,20.45
2022-11-14T10:50:49.967Z,21.08
2022-11-14T10:53:41.583Z,20.50
2022-11-14T10:56:11.784Z,20.30
2022-11-14T10:58:48.328Z,21.10
2022-11-14T11:01:34.842Z,20.60
2022-11-14T11:04:13.645Z,19.67
2022-11-14T11:06:40.684Z,20.58
2022-11-14T11:09:27.976Z,20.75
2022-11-14T11:11:58.663Z,19.15
2022-11-14T11:14:25.794Z,19.33
2022-11-14T11:17:10.909Z,18.77
2022-11-14T11:19:39.166Z,18.52
2022-11-14T11:22:25.398Z,19.35
2022-11-14T11:24:52.058Z,19.50
2022-11-14T11:27:28.495Z,19.65
2022-11-14T11:30:15.822Z,20.45
2022-11-14T11:32:42.611Z,18.40
2022-11-14T11:35:14.818Z,18.42
2022-11-14T11:38:00.100Z,19.20
2022-11-14T11:40:28.971Z,19.13
2022-11-14T11:43:38.337Z,18.20
2022-11-14T11:45:54.761Z,19.80
2022-11-14T11:48:23.296Z,19.55
2022-11-14T11:50:50.447Z,18.55
2022-11-14T11:53:23.347Z,19.23
2022-11-14T11:55:54.777Z,19.02
2022-11-14T11:58:26.449Z,26.77
2022-11-14T12:03:25.422Z,25.25
2022-11-14T12:06:14.264Z,19.92
2022-11-14T12:08:49.900Z,21.40
2022-11-14T12:11:23.983Z,20.60
2022-11-14T12:13:56.627Z,20.90
2022-11-14T12:16:45.252Z,18.25
2022-11-14T12:19:41.606Z,19.65
2022-11-14T12:22:24.555Z,19.48
2022-11-14T12:24:51.181Z,19.88
2022-11-14T12:27:42.402Z,20.02
2022-11-14T12:30:24.161Z,20.02
2022-11-14T12:32:57.441Z,19.00
2022-11-14T12:35:30.675Z,19.13
2022-11-14T12:37:59.697Z,20.67
2022-11-14T12:40:33.361Z,19.45
2022-11-14T12:43:01.949Z,18.27
2022-11-14T12:45:41.123Z,20.20
2022-11-14T12:48:28.920Z,21.23
2022-11-14T12:50:57.497Z,19.35
2022-11-14T12:53:35.730Z,19.13
2022-11-14T12:56:17.629Z,20.23
2022-11-14T12:59:06.013Z,20.15
2022-11-14T13:01:54.523Z,20.00
2022-11-14T13:04:43.000Z,19.98
2022-11-14T13:07:46.854Z,19.17
2022-11-14T13:10:27.831Z,20.35
2022-11-14T13:13:26.457Z,20.27
2022-11-14T13:16:16.731Z,19.42
2022-11-14T13:19:10.142Z,20.77
2022-11-14T13:21:59.611Z,20.17
2022-11-14T13:24:26.313Z,21.55
2022-11-14T13:26:55.008Z,20.08
2022-11-14T13:29:40.106Z,21.05
2022-11-14T13:32:11.244Z,19.77
2022-11-14T13:34:51.177Z,21.45
2022-11-14T13:37:53.127Z,18.98
2022-11-14T13:40:34.666Z,20.13
2022-11-14T13:43:16.829Z,20.20
2022-11-14T13:46:15.864Z,19.23
2022-11-14T13:48:59.185Z,22.00
2022-11-14T13:51:42.881Z,19.15
2022-11-14T13:54:17.622Z,19.15
2022-11-14T13:56:45.159Z,20.15
2022-11-14T13:59:30.774Z,20.27
2022-11-14T14:02:32.108Z,20.65
2022-11-14T14:05:21.662Z,20.90
2022-11-14T14:08:17.023Z,21.52
2022-11-14T14:11:11.709Z,20.55
2022-11-14T14:14:06.588Z,19.80
2022-11-14T14:16:55.983Z,21.67
2022-11-14T14:19:52.031Z,22.40
2022-11-14T14:22:37.523Z,22.20
2022-11-14T14:25:22.268Z,22.30
2022-11-14T14:28:08.206Z,21.17
2022-11-14T14:30:35.101Z,21.40
2022-11-14T14:33:07.954Z,20.73
2022-11-14T14:35:40.405Z,22.08
2022-11-14T14:38:22.510Z,23.27
2022-11-14T14:40:49.278Z,20.95
2022-11-14T14:43:25.554Z,22.17
2022-11-14T14:45:54.183Z,21.75
2022-11-14T14:48:28.894Z,21.30
2022-11-14T14:50:58.097Z,22.30
2022-11-14T14:53:27.580Z,22.05
2022-11-14T14:55:58.146Z,23.70
2022-11-14T14:58:33.790Z,22.70
2022-11-14T15:01:11.912Z,22.25
2022-11-14T15:04:09.215Z,21.92
2022-11-14T15:06:39.748Z,22.38
2022-11-14T15:09:11.083Z,21.95
2022-11-14T15:11:47.560Z,23.38
2022-11-14T15:14:19.306Z,22.80
2022-11-14T15:16:50.135Z,23.30
2022-11-14T15:19:20.683Z,22.15
2022-11-14T15:22:02.828Z,24.25
2022-11-14T15:24:30.623Z,24.27
2022-11-14T15:26:58.070Z,25.13
2022-11-14T15:29:27.286Z,24.33
2022-11-14T15:32:04.917Z,22.00
2022-11-14T15:34:37.466Z,24.08
2022-11-14T15:37:23.074Z,22.92
2022-11-14T15:39:50.263Z,24.23
2022-11-14T15:42:26.447Z,24.50
2022-11-14T15:44:53.182Z,24.00
2022-11-14T15:47:28.838Z,23.55
2022-11-14T15:50:22.490Z,23.90
2022-11-14T15:52:59.186Z,22.90
2022-11-14T15:55:26.063Z,23.13
2022-11-14T15:58:20.971Z,23.65
2022-11-14T16:00:47.314Z,23.42
2022-11-14T16:03:19.368Z,25.00
2022-11-14T16:05:46.330Z,25.52
2022-11-14T16:08:13.195Z,24.48
2022-11-14T16:10:40.087Z,23.33
2022-11-14T16:13:07.070Z,25.33
2022-11-14T16:15:33.725Z,25.25
2022-11-14T16:18:00.449Z,25.73
2022-11-14T16:20:29.357Z,25.00
2022-11-14T16:22:56.658Z,26.35
2022-11-14T16:25:25.193Z,24.55
2022-11-14T16:27:52.215Z,25.10
2022-11-14T16:30:20.944Z,26.15
2022-11-14T16:32:49.024Z,24.90
2022-11-14T16:35:18.379Z,25.27
2022-11-14T16:37:45.223Z,25.40
2022-11-14T16:40:21.583Z,23.55
2022-11-14T16:42:48.932Z,26.05
2022-11-14T16:45:20.555Z,25.38
2022-11-14T16:47:48.283Z,27.20
2022-11-14T16:50:15.123Z,25.48
2022-11-14T16:52:41.929Z,26.27
2022-11-14T16:55:10.421Z,23.67
2022-11-14T16:57:37.757Z,24.73
2022-11-14T17:00:10.679Z,25.33
2022-11-14T17:02:37.455Z,25.20
2022-11-14T17:05:04.645Z,25.38
2022-11-14T17:07:33.315Z,25.83
2022-11-14T17:10:00.502Z,24.20
2022-11-14T17:12:28.115Z,27.05
2022-11-14T17:14:54.803Z,26.83
2022-11-14T17:17:21.697Z,25.20
2022-11-14T17:19:48.621Z,26.75
2022-11-14T17:22:17.278Z,26.05
2022-11-14T17:24:44.451Z,26.00
2022-11-14T17:27:13.043Z,26.17
2022-11-14T17:29:39.944Z,26.08
2022-11-14T17:32:06.955Z,25.75
2022-11-14T17:34:33.704Z,26.42
2022-11-14T17:37:00.393Z,25.88
2022-11-14T17:39:27.207Z,25.52
2022-11-14T17:41:54.194Z,27.20
2022-11-14T17:44:21.139Z,24.83
2022-11-14T17:46:48.215Z,26.27
2022-11-14T17:49:14.897Z,26.98
2022-11-14T17:51:41.830Z,25.55
2022-11-14T17:54:09.003Z,25.00
2022-11-14T17:56:35.752Z,27.00
2022-11-14T17:59:03.187Z,26.63
2022-11-14T18:01:31.428Z,27.48
2022-11-14T18:04:01.747Z,27.23
2022-11-14T18:06:33.670Z,27.80
2022-11-14T18:09:04.932Z,27.40
2022-11-14T18:11:32.370Z,26.80
2022-11-14T18:13:59.138Z,27.63
2022-11-14T18:16:31.375Z,27.85
2022-11-14T18:19:06.470Z,25.85
2022-11-14T18:21:33.209Z,26.67
2022-11-14T18:24:00.460Z,27.30
2022-11-14T18:26:28.797Z,26.80
2022-11-14T18:29:00.801Z,27.25
2022-11-14T18:31:28.047Z,27.63
2022-11-14T18:33:55.127Z,28.08
2022-11-14T18:36:22.049Z,24.98
2022-11-14T18:38:48.913Z,28.20
2022-11-14T18:41:18.487Z,28.30
2022-11-14T18:43:46.726Z,27.02
2022-11-14T18:46:17.899Z,27.70
2022-11-14T18:48:46.997Z,28.17
2022-11-14T18:51:16.754Z,27.83
2022-11-14T18:53:43.447Z,29.48
2022-11-14T18:56:15.614Z,27.55
2022-11-14T18:58:43.175Z,26.80
2022-11-14T19:01:15.823Z,28.73
2022-11-14T19:03:42.894Z,26.90
2022-11-14T19:06:12.101Z,28.15
2022-11-14T19:08:39.681Z,28.25
2022-11-14T19:11:29.662Z,28.23
2022-11-14T19:14:04.913Z,27.77
2022-11-14T19:16:33.449Z,27.25
2022-11-14T19:19:00.525Z,28.60
2022-11-14T19:21:28.102Z,27.63
2022-11-14T19:23:54.917Z,27.13
2022-11-14T19:26:23.088Z,27.88
2022-11-14T19:28:49.876Z,27.70
2022-11-14T19:31:17.742Z,26.15
2022-11-14T19:33:47.819Z,27.80
2022-11-14T19:36:27.833Z,27.88
2022-11-14T19:39:04.025Z,28.45
2022-11-14T19:41:32.235Z,27.35
2022-11-14T19:44:00.096Z,27.95
2022-11-14T19:46:28.951Z,28.65
2022-11-14T19:49:00.619Z,27.35
2022-11-14T19:51:28.841Z,27.95
2022-11-14T19:53:59.189Z,27.15
2022-11-14T19:56:27.024Z,27.70
2022-11-14T19:58:56.214Z,27.10
2022-11-14T20:01:25.376Z,27.95
2022-11-14T20:03:55.055Z,29.45
2022-11-14T20:06:23.446Z,28.63
2022-11-14T20:08:51.172Z,27.67
2022-11-14T20:11:18.961Z,28.25
2022-11-14T20:13:46.301Z,28.20
2022-11-14T20:16:17.964Z,29.40
2022-11-14T20:18:46.243Z,28.10
2022-11-14T20:21:15.320Z,27.52
2022-11-14T20:23:42.370Z,29.73
2022-11-14T20:26:11.505Z,28.40
2022-11-14T20:28:39.472Z,27.33
2022-11-14T20:31:09.921Z,28.58
2022-11-14T20:33:38.475Z,28.13
2022-11-14T20:37:19.699Z,28.98
2022-11-14T20:59:55.102Z,28.17
2022-11-14T21:02:21.968Z,30.88
2022-11-14T21:04:48.788Z,28.42
2022-11-14T21:07:15.494Z,29.52
2022-11-14T21:09:42.167Z,27.60
2022-11-14T21:12:08.855Z,30.38
2022-11-14T21:14:35.576Z,29.50
2022-11-14T21:17:02.284Z,30.98
2022-11-14T21:19:31.702Z,29.70
2022-11-14T21:21:58.290Z,29.65
2022-11-14T21:24:24.967Z,29.38
2022-11-14T21:26:51.705Z,31.73
2022-11-14T21:29:18.351Z,30.85
2022-11-14T21:31:45.967Z,29.90
2022-11-14T21:34:15.423Z,30.08
2022-11-14T21:36:46.679Z,31.60
2022-11-14T21:39:15.524Z,28.25
2022-11-14T21:41:43.301Z,31.80
2022-11-14T21:44:13.164Z,30.17
2022-11-14T21:46:40.368Z,29.90
2022-11-14T21:49:07.085Z,31.60
2022-11-14T21:51:33.768Z,32.22
2022-11-14T21:54:02.819Z,32.33
2022-11-14T21:56:31.825Z,33.72
2022-11-14T21:59:15.860Z,30.50
2022-11-14T22:02:05.117Z,31.25
2022-11-14T22:04:32.303Z,32.30
2022-11-14T22:07:01.365Z,31.95
2022-11-14T22:09:28.808Z,30.80
2022-11-14T22:11:56.333Z,32.60
2022-11-14T22:14:23.387Z,31.05
2022-11-14T22:16:50.518Z,31.55
2022-11-14T22:19:18.693Z,31.27
2022-11-14T22:21:45.638Z,31.42
2022-11-14T22:24:12.344Z,32.60
2022-11-14T22:26:40.391Z,30.65
2022-11-14T22:29:08.564Z,32.13
2022-11-14T22:31:35.578Z,32.65
2022-11-14T22:34:02.310Z,31.40
2022-11-14T22:36:29.167Z,31.95
2022-11-14T22:38:57.276Z,31.75
2022-11-14T22:41:32.775Z,32.05
2022-11-14T22:44:01.956Z,32.35
2022-11-14T22:46:29.182Z,32.83
2022-11-14T22:48:56.345Z,31.73
2022-11-14T22:51:25.289Z,32.15
2022-11-14T22:53:57.166Z,32.75
2022-11-14T22:56:26.630Z,32.03
2022-11-14T22:58:53.691Z,30.55
2022-11-14T23:01:31.320Z,32.85
2022-11-14T23:04:03.847Z,32.10
2022-11-14T23:06:33.511Z,32.00
2022-11-14T23:09:01.630Z,31.33
2022-11-14T23:11:30.975Z,31.63
2022-11-14T23:13:59.711Z,32.17
2022-11-14T23:16:29.239Z,30.30
2022-11-14T23:18:57.978Z,31.63
2022-11-14T23:21:28.239Z,33.10
2022-11-14T23:23:57.093Z,32.70
2022-11-14T23:26:25.202Z,30.70
2022-11-14T23:28:52.404Z,29.58
2022-11-14T23:31:19.562Z,30.52
2022-11-14T23:33:47.870Z,30.73
2022-11-14T23:36:15.223Z,31.02
2022-11-14T23:38:42.575Z,31.58
2022-11-14T23:41:16.234Z,31.25
2022-11-14T23:43:43.066Z,31.88
2022-11-14T23:46:10.003Z,32.15
2022-11-14T23:48:36.745Z,30.63
2022-11-14T23:51:03.982Z,31.40
2022-11-14T23:53:31.018Z,31.20
2022-11-14T23:56:00.034Z,31.75
2022-11-14T23:58:28.772Z,31.42
